Sicily Island, LA (71368)

2:44 AM CST on December 19, 2014 (GMT -0600)
Hwy 4 at Hwy 888 | Change Station
CLOSE
Current Station
Personal Weather Station
Location: Louisiana, LA
Elevation: 82 ft
Nearby Weather Stations

Elev 82 ft 32.09 °N, 91.41 °W | Updated 12 seconds ago

Overcast
Overcast
49.3 °F
Feels Like 48 °F
N
3.8
Wind Variable Wind from NE
Gusts 4.0 mph

Today
High -- | Low -- °F
--% Chance of Precip.
Yesterday
High -- | Low -- °F
Precip. -- in
7:01 AM 5:06 PM
Waning Crescent, 9% visible
Pressure 30.11 in
Visibility 5.0 miles
Clouds Overcast 400 ft
Windchill 48 °F
Dew Point 46 °F
Humidity 90%
Rainfall 0.00 in
Snow Depth Not available.
UV 0.0 out of 12
Pollen .40 out of 12
Air Quality Not available.
Flu Activity Not available.
METAR KHEZ 190835Z AUTO 05005KT 5SM OVC004 10/09 A3011 RMK AO1

More Conditions Fewer Conditions

Pressure 30.11 in
Visibility 5.0 miles
Clouds Overcast 400 ft
Windchill 48 °F
Dew Point 46 °F
Humidity 90%
Rainfall 0.00 in
Snow Depth Not available.
UV 0.0 out of 12
Pollen .40 out of 12
Air Quality Not available.
Flu Activity Not available.
METAR KHEZ 190835Z AUTO 05005KT 5SM OVC004 10/09 A3011 RMK AO1

More Conditions Fewer Conditions

10-Day Weather Forecast

Almanac

Astronomy

Dec. 19, 2014 Rise Set
Actual Time
Civil Twilight
Nautical Twilight
Astronomical Twilight
Moon
Length of Visible Light
Length of Day
Tomorrow will be .
, % of the Moon is Illuminated

Today's Extremes

State Highs State Lows

Community

WunderPhotos

Upload Photos

1,778,953 photos uploaded!

WunderBlogs® & News

Nearby

Air Quality

  Air Quality AQ Index Pollutant
Not available.

Snow Depth

Station Depth Elevation

Earthquake Activity

City Distance Mag. Time & Date
Minimum magnitude displayed is 2.5.

Coastal Water Temperatures

Place Temperature

Nearby Weather Stations